Time;durP1;ratioP1;P1;durP2;ratioP2;P2;SDS_P1;SDS_P2;PMS_P1;PMS_P2;Temp;Humidity;BMP_temperature;BMP_pressure;BME280_temperature;BME280_humidity;BME280_pressure;Samples;Min_cycle;Max_cycle;Signal;HPM_P1;HPM_P2
2021/06/27 00:01:36;;;;;;;;;23.00;19.75;;;;;23.36;53.41;100570.34;5004273;28;47003;-76
2021/06/27 00:04:01;;;;;;;;;21.50;17.75;;;;;23.33;53.62;100575.81;5017946;28;45309;-76
2021/06/27 00:06:27;;;;;;;;;18.50;15.75;;;;;23.34;53.82;100589.06;5001338;28;45203;-76
2021/06/27 00:08:52;;;;;;;;;19.50;17.25;;;;;23.33;53.76;100589.13;5001412;28;45389;-76
2021/06/27 00:11:18;;;;;;;;;20.25;18.00;;;;;23.35;54.00;100595.25;4984617;28;47936;-76
2021/06/27 00:13:44;;;;;;;;;18.50;18.50;;;;;23.33;53.89;100578.47;5000993;28;45261;-76
2021/06/27 00:16:10;;;;;;;;;22.25;19.50;;;;;23.35;54.03;100573.94;5002452;28;45187;-76
2021/06/27 00:18:35;;;;;;;;;20.75;19.50;;;;;23.35;54.15;100581.94;4984742;28;45284;-76
2021/06/27 00:21:06;;;;;;;;;18.50;18.00;;;;;23.30;53.98;100579.50;5002134;28;45385;-76
2021/06/27 00:23:34;;;;;;;;;19.75;19.50;;;;;23.31;53.70;100588.34;5002339;28;45427;-76
2021/06/27 00:25:59;;;;;;;;;20.00;19.00;;;;;23.31;53.72;100597.19;5000985;28;45280;-76
2021/06/27 00:28:27;;;;;;;;;22.25;19.50;;;;;23.27;54.36;100600.06;5001843;28;45238;-76
2021/06/27 00:30:53;;;;;;;;;20.50;18.75;;;;;23.26;53.86;100611.63;5000816;28;45403;-76
2021/06/27 00:33:19;;;;;;;;;19.25;19.25;;;;;23.26;53.85;100623.16;4984182;28;45635;-76
2021/06/27 00:35:45;;;;;;;;;20.75;19.25;;;;;23.28;53.94;100612.44;5002042;28;45264;-76
2021/06/27 00:38:10;;;;;;;;;20.00;18.75;;;;;23.26;54.42;100604.50;5000832;28;45428;-76
2021/06/27 00:40:36;;;;;;;;;23.75;22.50;;;;;23.25;54.54;100613.44;5000587;28;48473;-76
2021/06/27 00:43:02;;;;;;;;;22.25;17.50;;;;;23.25;54.22;100612.59;4994819;28;45364;-76
2021/06/27 00:45:28;;;;;;;;;20.00;19.75;;;;;23.26;54.24;100615.16;5003353;28;45270;-75
2021/06/27 00:47:54;;;;;;;;;18.50;18.00;;;;;23.26;54.26;100616.97;5000660;28;45198;-76
2021/06/27 00:50:22;;;;;;;;;21.00;19.25;;;;;23.25;54.25;100610.78;4984180;28;47449;-76
2021/06/27 00:52:48;;;;;;;;;22.25;21.25;;;;;23.23;54.52;100615.31;5019526;28;45498;-76
2021/06/27 00:55:14;;;;;;;;;19.50;18.75;;;;;23.26;54.21;100625.81;5003838;28;45364;-76
2021/06/27 00:57:41;;;;;;;;;20.75;20.75;;;;;23.24;54.10;100617.03;5020398;28;45409;-76
2021/06/27 01:00:07;;;;;;;;;21.00;18.50;;;;;23.20;54.26;100615.47;5014716;28;45447;-75
2021/06/27 01:02:33;;;;;;;;;19.75;18.00;;;;;23.19;54.33;100605.72;5000009;28;45270;-76
2021/06/27 01:04:59;;;;;;;;;18.25;17.25;;;;;23.20;54.34;100580.84;4999821;28;54685;-76
2021/06/27 01:07:24;;;;;;;;;18.75;18.75;;;;;23.21;54.99;100555.94;5000320;28;45451;-76
2021/06/27 01:09:50;;;;;;;;;20.00;18.75;;;;;23.21;54.68;100566.59;4999634;28;60238;-76
2021/06/27 01:12:18;;;;;;;;;20.00;18.25;;;;;23.18;54.31;100574.72;4983958;28;45263;-76
2021/06/27 01:14:43;;;;;;;;;19.00;19.00;;;;;23.08;54.87;100552.97;5001842;28;45375;-75
2021/06/27 01:17:09;;;;;;;;;19.75;18.75;;;;;23.19;54.73;100579.09;5016833;28;56439;-75
2021/06/27 01:19:34;;;;;;;;;20.00;19.50;;;;;23.17;55.17;100569.47;5001152;28;57359;-75
2021/06/27 01:21:59;;;;;;;;;18.50;18.25;;;;;23.18;54.59;100569.38;5001503;28;47662;-75
2021/06/27 01:24:26;;;;;;;;;22.75;21.00;;;;;23.18;54.90;100587.16;5001539;28;45490;-76
2021/06/27 01:26:51;;;;;;;;;20.25;19.00;;;;;23.16;55.27;100589.03;4999951;28;45540;-76
2021/06/27 01:29:17;;;;;;;;;22.00;19.75;;;;;23.15;55.28;100585.50;4999024;28;65047;-76
2021/06/27 01:31:43;;;;;;;;;19.25;19.25;;;;;23.11;55.05;100567.97;4999985;28;45288;-76
2021/06/27 01:34:08;;;;;;;;;19.75;18.25;;;;;23.14;54.99;100567.81;4983637;28;45263;-76
2021/06/27 01:36:34;;;;;;;;;23.75;22.75;;;;;23.12;55.13;100565.22;4999475;28;57499;-76
2021/06/27 01:38:59;;;;;;;;;19.75;18.75;;;;;23.17;55.56;100561.47;4982544;28;66012;-76
2021/06/27 01:41:25;;;;;;;;;26.00;21.75;;;;;23.06;55.17;100548.66;4982482;28;71955;-76
2021/06/27 01:43:50;;;;;;;;;24.25;21.25;;;;;23.11;55.62;100566.16;5013200;28;45234;-75
2021/06/27 01:46:15;;;;;;;;;24.00;23.00;;;;;23.12;55.99;100567.88;4999860;28;45514;-76
2021/06/27 01:48:41;;;;;;;;;23.50;21.25;;;;;23.09;55.65;100561.81;4982379;28;66072;-76
2021/06/27 01:51:07;;;;;;;;;24.50;23.25;;;;;23.10;55.64;100539.59;4987702;28;68403;-76
2021/06/27 01:53:34;;;;;;;;;22.50;20.75;;;;;23.11;55.29;100538.69;5002884;28;45632;-76
2021/06/27 01:56:08;;;;;;;;;24.00;23.25;;;;;23.12;55.53;100527.09;5036066;28;45578;-76
2021/06/27 01:58:50;;;;;;;;;20.00;20.00;;;;;23.11;55.66;100525.38;5001127;28;46408;-76
2021/06/27 02:01:22;;;;;;;;;20.50;20.25;;;;;23.12;55.63;100538.59;5016183;28;45315;-76
2021/06/27 02:03:49;;;;;;;;;24.00;22.75;;;;;23.11;55.63;100542.19;5019356;28;45439;-76
2021/06/27 02:06:16;;;;;;;;;21.75;20.75;;;;;23.08;55.71;100528.16;5019077;28;45403;-76
2021/06/27 02:08:43;;;;;;;;;23.25;21.75;;;;;23.00;55.58;100504.53;5019067;28;47912;-76
2021/06/27 02:11:09;;;;;;;;;20.25;20.00;;;;;23.09;55.98;100504.13;5018963;28;45470;-76
2021/06/27 02:13:35;;;;;;;;;22.25;20.75;;;;;23.08;55.33;100496.19;5019262;28;45342;-76
2021/06/27 02:16:00;;;;;;;;;22.75;20.50;;;;;23.07;55.59;100492.69;5019153;28;45496;-75
2021/06/27 02:18:25;;;;;;;;;22.00;19.50;;;;;23.10;55.46;100503.16;5001980;28;51126;-75
2021/06/27 02:20:51;;;;;;;;;26.50;23.75;;;;;23.10;54.96;100486.34;5020143;28;45440;-76
2021/06/27 02:23:17;;;;;;;;;21.75;19.50;;;;;23.06;55.13;100469.66;5019020;28;45361;-76
2021/06/27 02:25:43;;;;;;;;;20.25;20.25;;;;;23.10;55.29;100479.22;5020095;28;45257;-76
2021/06/27 02:28:08;;;;;;;;;19.25;19.25;;;;;23.09;55.21;100464.19;5018338;28;45430;-76
2021/06/27 02:30:34;;;;;;;;;23.25;20.00;;;;;23.11;55.29;100467.66;5017956;28;64494;-76
2021/06/27 02:32:59;;;;;;;;;23.00;23.00;;;;;23.10;55.37;100457.91;5018370;28;49883;-76
2021/06/27 02:35:25;;;;;;;;;21.25;20.25;;;;;23.11;55.50;100465.00;5002239;28;45191;-76
2021/06/27 02:37:50;;;;;;;;;21.50;20.75;;;;;23.08;55.14;100459.78;5018464;28;54865;-76
2021/06/27 02:40:15;;;;;;;;;19.00;17.25;;;;;23.10;55.24;100449.94;5018756;28;45345;-76
2021/06/27 02:42:41;;;;;;;;;23.75;23.75;;;;;23.10;55.37;100455.25;5015549;28;45176;-76
2021/06/27 02:45:08;;;;;;;;;22.00;21.00;;;;;23.11;54.85;100446.38;4980609;28;45934;-76
2021/06/27 02:47:33;;;;;;;;;25.50;20.25;;;;;23.12;55.42;100445.44;5018345;28;47462;-76
2021/06/27 02:49:59;;;;;;;;;19.75;17.75;;;;;23.13;55.17;100444.47;5035326;28;45347;-75
2021/06/27 02:52:24;;;;;;;;;21.25;21.25;;;;;23.12;55.13;100437.44;5010214;28;51472;-76
2021/06/27 02:54:50;;;;;;;;;23.25;21.25;;;;;23.11;55.21;100435.72;4998785;28;45358;-76
2021/06/27 02:57:15;;;;;;;;;22.75;22.00;;;;;23.08;55.34;100432.31;4998663;28;45888;-76
2021/06/27 02:59:40;;;;;;;;;22.25;20.00;;;;;23.11;54.90;100442.84;5018066;28;56734;-76
2021/06/27 03:02:06;;;;;;;;;19.25;17.50;;;;;23.11;55.64;100435.72;4998695;28;45435;-76
2021/06/27 03:04:31;;;;;;;;;21.75;19.25;;;;;23.11;54.92;100425.06;4998172;28;57015;-76
2021/06/27 03:06:57;;;;;;;;;21.50;20.75;;;;;23.13;55.36;100430.31;4998830;28;46213;-76
2021/06/27 03:09:22;;;;;;;;;23.25;20.00;;;;;23.11;55.20;100430.38;4998963;28;45361;-76
2021/06/27 03:11:47;;;;;;;;;24.25;20.25;;;;;23.12;55.76;100440.09;4998612;28;48747;-76
2021/06/27 03:14:13;;;;;;;;;19.25;19.25;;;;;23.11;54.75;100440.19;4998566;28;45296;-76
2021/06/27 03:16:38;;;;;;;;;20.50;19.00;;;;;23.11;55.14;100441.03;4998293;28;45335;-76
2021/06/27 03:19:04;;;;;;;;;25.50;22.75;;;;;23.10;55.88;100439.28;4981802;28;56996;-76
2021/06/27 03:21:29;;;;;;;;;21.75;21.25;;;;;23.10;55.39;100436.63;5034612;28;45183;-76
2021/06/27 03:23:54;;;;;;;;;20.00;20.00;;;;;23.08;55.68;100427.84;5035819;28;45236;-76
2021/06/27 03:26:20;;;;;;;;;20.25;19.25;;;;;23.09;55.97;100431.38;5020724;28;69511;-76
2021/06/27 03:28:50;;;;;;;;;20.75;19.00;;;;;23.08;55.41;100435.84;5021586;28;46833;-76
2021/06/27 03:31:16;;;;;;;;;22.50;21.25;;;;;23.08;55.36;100438.50;5037668;28;45380;-76
2021/06/27 03:33:41;;;;;;;;;18.25;18.25;;;;;23.10;55.40;100419.78;5021088;28;57863;-76
2021/06/27 03:36:07;;;;;;;;;21.00;17.00;;;;;23.10;55.83;100417.13;5022383;28;60904;-76
2021/06/27 03:41:03;;;;;;;;;21.75;20.50;;;;;23.12;55.34;100407.28;5037642;28;45270;-76
2021/06/27 03:43:29;;;;;;;;;19.75;19.75;;;;;23.13;54.88;100406.34;5021648;28;45494;-76
2021/06/27 03:45:54;;;;;;;;;22.75;20.50;;;;;23.10;55.16;100411.81;5001530;28;47499;-76
2021/06/27 03:48:19;;;;;;;;;20.00;18.00;;;;;23.10;54.87;100423.31;4984501;28;57715;-76
2021/06/27 03:50:45;;;;;;;;;17.25;14.50;;;;;23.07;54.74;100434.13;4987557;28;45357;-76
2021/06/27 03:53:10;;;;;;;;;17.25;17.25;;;;;23.08;55.14;100441.16;5004677;28;45463;-76
2021/06/27 03:55:36;;;;;;;;;20.75;19.25;;;;;23.09;55.04;100448.22;5004707;28;48487;-76
2021/06/27 03:58:01;;;;;;;;;23.50;22.00;;;;;23.07;55.26;100444.75;5021188;28;45376;-76
2021/06/27 04:00:26;;;;;;;;;18.50;17.00;;;;;23.06;54.87;100448.38;4997482;28;45369;-76
2021/06/27 04:02:52;;;;;;;;;18.00;17.50;;;;;23.05;54.83;100445.78;5000784;28;55955;-76
2021/06/27 04:05:17;;;;;;;;;21.50;20.50;;;;;23.04;55.27;100439.59;4984693;28;47001;-76
2021/06/27 04:07:43;;;;;;;;;19.25;18.00;;;;;23.07;55.09;100442.09;5015145;28;45242;-76
2021/06/27 04:10:09;;;;;;;;;20.75;20.75;;;;;23.07;55.18;100434.13;5021433;28;45277;-76
2021/06/27 04:12:34;;;;;;;;;20.75;19.75;;;;;23.07;55.19;100433.25;5004419;28;45417;-76
2021/06/27 04:14:59;;;;;;;;;20.25;20.00;;;;;23.05;55.41;100437.78;5021101;28;46087;-76
2021/06/27 04:17:25;;;;;;;;;21.25;19.00;;;;;23.07;54.81;100441.25;5019913;28;69881;-76
2021/06/27 04:19:51;;;;;;;;;21.50;19.75;;;;;23.05;55.46;100443.13;5021405;28;45244;-76
2021/06/27 04:22:17;;;;;;;;;18.50;17.25;;;;;23.03;55.11;100437.00;5004314;28;45318;-76
2021/06/27 04:24:42;;;;;;;;;23.25;22.25;;;;;23.03;55.34;100429.03;5020926;28;46038;-76
2021/06/27 04:27:08;;;;;;;;;23.00;21.50;;;;;23.04;55.22;100438.72;5020804;28;45269;-76
2021/06/27 04:29:33;;;;;;;;;21.75;20.00;;;;;23.03;55.35;100439.66;5037388;28;45407;-76
2021/06/27 04:31:59;;;;;;;;;21.00;19.25;;;;;23.01;55.27;100439.72;5020705;28;45323;-76
2021/06/27 04:34:24;;;;;;;;;17.25;17.25;;;;;22.96;54.45;100428.44;5003871;28;48403;-76
2021/06/27 04:36:50;;;;;;;;;21.50;19.50;;;;;23.02;55.16;100441.47;5003276;28;45487;-76
2021/06/27 04:39:16;;;;;;;;;21.75;20.50;;;;;23.02;54.95;100437.91;5037245;28;45411;-76
2021/06/27 04:41:44;;;;;;;;;18.50;18.50;;;;;23.01;55.50;100437.06;5037330;28;45355;-76
2021/06/27 04:44:11;;;;;;;;;20.75;18.50;;;;;23.03;55.12;100426.38;4984463;28;47282;-76
2021/06/27 04:46:37;;;;;;;;;19.00;18.25;;;;;23.03;55.28;100431.69;5000555;28;45266;-77
2021/06/27 04:49:02;;;;;;;;;20.75;19.25;;;;;23.03;55.12;100431.69;5017504;28;45388;-76
2021/06/27 04:51:28;;;;;;;;;25.25;19.75;;;;;23.02;54.92;100429.94;5008038;28;58925;-75
2021/06/27 04:53:53;;;;;;;;;18.50;17.00;;;;;23.01;55.24;100431.72;5000748;28;46069;-76
2021/06/27 04:56:18;;;;;;;;;21.25;20.25;;;;;23.00;55.66;100438.00;5000853;28;68963;-76
2021/06/27 04:58:44;;;;;;;;;23.50;18.50;;;;;22.99;55.04;100432.75;5007348;28;45385;-76
2021/06/27 05:01:09;;;;;;;;;19.75;19.75;;;;;22.97;55.29;100431.97;4989776;28;52282;-76
2021/06/27 05:03:35;;;;;;;;;19.00;18.00;;;;;22.95;55.41;100432.03;4984015;28;48249;-76
2021/06/27 05:06:00;;;;;;;;;18.75;18.75;;;;;22.95;55.28;100432.03;5000099;28;48212;-75
2021/06/27 05:08:25;;;;;;;;;19.00;19.00;;;;;22.97;55.64;100434.63;5000772;28;45369;-75
2021/06/27 05:10:51;;;;;;;;;22.00;20.50;;;;;22.97;55.19;100438.16;4983156;28;65031;-75
2021/06/27 05:13:16;;;;;;;;;19.75;18.50;;;;;22.98;55.58;100434.56;5016860;28;46414;-74
2021/06/27 05:15:42;;;;;;;;;22.25;19.75;;;;;22.98;55.12;100434.56;4999966;28;53094;-75
2021/06/27 05:18:07;;;;;;;;;20.00;18.25;;;;;22.95;55.51;100428.53;4999712;28;51511;-78
2021/06/27 05:20:32;;;;;;;;;19.50;19.50;;;;;22.97;55.12;100426.66;5016726;28;45635;-76
2021/06/27 05:22:58;;;;;;;;;18.00;17.75;;;;;22.98;55.49;100426.56;4983457;28;54176;-76
2021/06/27 05:25:23;;;;;;;;;18.75;18.50;;;;;22.98;55.53;100415.91;4987100;28;45283;-76
2021/06/27 05:27:49;;;;;;;;;19.25;18.50;;;;;22.97;55.67;100418.66;5005564;28;45294;-76
2021/06/27 05:30:15;;;;;;;;;22.25;21.25;;;;;22.96;55.00;100419.59;4987711;28;45529;-76
2021/06/27 05:32:40;;;;;;;;;19.75;19.25;;;;;22.96;55.79;100431.09;4999570;28;45862;-76
2021/06/27 05:35:06;;;;;;;;;17.25;16.00;;;;;22.96;55.21;100432.91;4999922;28;45622;-75
2021/06/27 05:37:32;;;;;;;;;25.00;23.00;;;;;22.95;55.56;100439.16;4999795;28;45312;-75
2021/06/27 05:39:57;;;;;;;;;24.00;20.50;;;;;22.95;55.73;100445.34;4983419;28;45905;-76
2021/06/27 05:42:23;;;;;;;;;24.75;22.75;;;;;22.95;55.69;100440.03;5004946;28;45527;-75
2021/06/27 05:44:48;;;;;;;;;27.25;22.00;;;;;22.96;55.33;100431.09;5007958;28;45514;-75
2021/06/27 05:47:14;;;;;;;;;34.75;29.50;;;;;22.96;55.71;100431.09;4982979;28;45380;-76
2021/06/27 05:49:42;;;;;;;;;24.00;22.00;;;;;22.95;55.35;100428.53;5001098;28;45346;-76
2021/06/27 05:52:07;;;;;;;;;19.50;19.25;;;;;22.94;55.61;100432.97;5007994;28;45372;-76
2021/06/27 05:54:33;;;;;;;;;16.75;16.00;;;;;22.92;55.34;100432.16;5015844;28;59431;-75
2021/06/27 05:56:58;;;;;;;;;17.25;16.75;;;;;22.94;55.69;100425.00;4983008;28;45190;-77
2021/06/27 05:59:24;;;;;;;;;20.25;20.25;;;;;22.93;55.31;100425.91;4984700;28;48080;-75
2021/06/27 06:01:49;;;;;;;;;20.00;19.50;;;;;22.93;55.91;100425.91;5001924;28;55192;-76
2021/06/27 06:04:14;;;;;;;;;18.75;17.00;;;;;22.91;55.76;100427.78;4983083;28;45331;-76
2021/06/27 06:06:40;;;;;;;;;20.00;20.00;;;;;22.92;55.19;100428.66;4999596;28;45373;-76
2021/06/27 06:09:08;;;;;;;;;20.75;19.00;;;;;22.92;55.35;100439.28;4998951;28;60028;-75
2021/06/27 06:11:33;;;;;;;;;19.75;18.50;;;;;22.90;55.25;100430.53;5017077;28;45344;-75
2021/06/27 06:13:59;;;;;;;;;19.25;17.50;;;;;22.93;55.42;100436.56;4991539;28;45382;-75
2021/06/27 06:16:24;;;;;;;;;19.25;18.25;;;;;22.93;55.74;100436.56;4998664;28;55727;-76
2021/06/27 06:18:50;;;;;;;;;18.25;18.00;;;;;22.92;55.68;100439.28;4983013;28;45524;-76
2021/06/27 06:21:15;;;;;;;;;20.50;20.50;;;;;22.93;55.50;100436.56;4999232;28;46060;-75
2021/06/27 06:23:41;;;;;;;;;20.50;18.50;;;;;22.92;55.42;100432.16;4999381;28;45381;-76
2021/06/27 06:26:06;;;;;;;;;19.75;19.25;;;;;22.94;55.63;100430.31;4982503;28;45321;-77
2021/06/27 06:28:32;;;;;;;;;21.50;20.50;;;;;22.95;56.05;100436.50;4999365;28;45334;-77
2021/06/27 06:30:57;;;;;;;;;19.25;18.25;;;;;22.93;55.67;100439.22;4999111;28;47958;-75
2021/06/27 06:33:23;;;;;;;;;19.75;19.50;;;;;22.92;55.70;100432.16;4999197;28;45283;-75
2021/06/27 06:35:48;;;;;;;;;22.00;20.50;;;;;22.96;55.91;100439.09;4999175;28;45299;-75
2021/06/27 06:38:14;;;;;;;;;21.25;19.50;;;;;22.95;55.52;100434.69;4982816;28;48503;-76
2021/06/27 06:40:39;;;;;;;;;19.00;18.50;;;;;22.98;55.78;100434.56;4998868;28;45293;-76
2021/06/27 06:43:05;;;;;;;;;25.25;23.00;;;;;22.99;55.24;100440.72;5009918;28;45327;-76
2021/06/27 06:45:31;;;;;;;;;18.00;17.25;;;;;23.00;55.26;100439.78;5001084;28;49331;-76
2021/06/27 06:47:56;;;;;;;;;23.50;21.00;;;;;22.99;55.46;100444.25;5000700;28;45203;-77
2021/06/27 06:50:22;;;;;;;;;19.00;18.00;;;;;22.99;55.61;100441.59;4982970;28;47111;-77
2021/06/27 06:52:47;;;;;;;;;18.00;17.25;;;;;23.00;55.81;100445.97;5007860;28;45190;-77
2021/06/27 06:55:13;;;;;;;;;21.50;19.00;;;;;23.00;55.86;100448.63;4999747;28;45720;-76
2021/06/27 06:57:41;;;;;;;;;19.50;19.25;;;;;23.01;55.65;100439.72;4997850;28;71601;-76
2021/06/27 07:00:08;;;;;;;;;24.25;19.25;;;;;23.02;55.48;100449.47;4988161;28;45542;-76
2021/06/27 07:02:34;;;;;;;;;17.75;17.25;;;;;22.96;55.31;100435.56;4985749;28;45279;-76
2021/06/27 07:05:00;;;;;;;;;21.75;20.25;;;;;22.98;55.27;100436.34;4985758;28;45279;-75
2021/06/27 07:07:25;;;;;;;;;20.25;18.50;;;;;23.01;55.38;100442.38;5002514;28;45155;-76
2021/06/27 07:09:51;;;;;;;;;18.75;16.00;;;;;23.06;55.71;100442.19;5018487;28;45793;-76
2021/06/27 07:12:16;;;;;;;;;20.50;19.25;;;;;23.09;55.65;100445.53;4985323;28;59911;-76
2021/06/27 07:14:43;;;;;;;;;19.25;16.50;;;;;23.07;55.40;100435.91;5001940;28;45717;-76
2021/06/27 07:17:12;;;;;;;;;20.75;18.00;;;;;23.11;54.86;100440.19;5002024;28;45290;-76
2021/06/27 07:19:37;;;;;;;;;21.25;19.25;;;;;23.11;54.80;100442.84;4985226;28;47125;-77
2021/06/27 07:22:03;;;;;;;;;18.75;18.75;;;;;23.11;55.50;100441.03;5002219;28;45259;-77
2021/06/27 07:24:28;;;;;;;;;16.25;16.00;;;;;23.13;55.38;100443.63;5001924;28;45283;-77
2021/06/27 07:26:54;;;;;;;;;18.50;17.75;;;;;23.13;55.19;100441.81;5001737;28;45417;-76
2021/06/27 07:29:19;;;;;;;;;16.25;16.25;;;;;23.17;55.13;100447.00;5000954;28;63277;-77
2021/06/27 07:31:45;;;;;;;;;21.00;18.75;;;;;23.16;54.62;100451.44;5001786;28;45344;-76
2021/06/27 07:34:10;;;;;;;;;19.00;17.50;;;;;23.15;54.98;100446.22;5002420;28;63748;-76
2021/06/27 07:36:35;;;;;;;;;20.75;18.00;;;;;23.14;55.32;100434.69;5001187;28;63032;-76
2021/06/27 07:39:01;;;;;;;;;19.00;16.25;;;;;23.13;55.12;100433.84;5001632;28;45455;-76
2021/06/27 07:41:26;;;;;;;;;17.00;17.00;;;;;23.11;54.71;100430.38;5002820;28;48981;-76
2021/06/27 07:43:52;;;;;;;;;19.00;19.00;;;;;23.14;54.63;100434.69;5014469;28;52013;-76
2021/06/27 07:46:18;;;;;;;;;22.50;16.75;;;;;23.15;54.68;100427.56;5001554;28;45218;-76
2021/06/27 07:48:43;;;;;;;;;20.75;18.25;;;;;23.18;55.04;100427.41;5001591;28;45937;-76
2021/06/27 07:51:09;;;;;;;;;22.75;20.25;;;;;23.18;54.93;100416.75;4990680;28;45997;-76
2021/06/27 07:53:37;;;;;;;;;18.25;18.25;;;;;23.15;55.13;100408.94;5004822;28;45401;-76
2021/06/27 07:56:03;;;;;;;;;20.00;17.75;;;;;23.17;54.93;100413.25;5005231;28;45514;-78
2021/06/27 07:58:29;;;;;;;;;25.25;21.75;;;;;23.18;55.13;100411.44;5004459;28;47199;-76
2021/06/27 08:01:20;;;;;;;;;19.50;17.25;;;;;23.18;55.04;100414.97;5009851;28;45288;-76
2021/06/27 08:03:46;;;;;;;;;20.00;18.25;;;;;23.19;55.04;100413.16;5007291;28;45459;-76
2021/06/27 08:06:16;;;;;;;;;18.25;16.75;;;;;23.20;54.61;100409.59;5004418;28;46142;-76
2021/06/27 08:08:41;;;;;;;;;20.50;18.50;;;;;23.19;54.93;100411.34;5020933;28;47007;-75
2021/06/27 08:11:08;;;;;;;;;16.25;15.75;;;;;23.20;54.45;100406.94;5036096;28;51467;-76
2021/06/27 08:13:34;;;;;;;;;21.25;20.25;;;;;23.10;55.18;100387.84;5006350;28;45393;-76
2021/06/27 08:16:05;;;;;;;;;22.75;22.25;;;;;23.19;54.57;100405.16;4988458;28;52297;-76
2021/06/27 08:18:31;;;;;;;;;22.25;19.50;;;;;23.17;54.62;100391.06;5000825;28;47864;-76
2021/06/27 08:20:56;;;;;;;;;20.00;18.75;;;;;23.25;55.05;100407.53;5000275;28;61046;-76
2021/06/27 08:23:25;;;;;;;;;19.50;18.50;;;;;23.18;54.65;100391.00;5001772;28;60917;-76
2021/06/27 08:25:50;;;;;;;;;18.50;16.75;;;;;23.27;54.41;100411.84;5001588;28;57811;-76
2021/06/27 08:28:15;;;;;;;;;18.00;17.00;;;;;23.26;54.59;100414.59;5001453;28;58896;-75
2021/06/27 08:30:41;;;;;;;;;22.25;19.50;;;;;23.25;54.59;100411.06;5000797;28;45341;-76
2021/06/27 08:33:09;;;;;;;;;19.50;18.00;;;;;23.27;54.92;100418.97;5000624;28;46931;-75
2021/06/27 08:35:35;;;;;;;;;20.75;19.50;;;;;23.32;54.42;100430.28;4983927;28;57769;-76
2021/06/27 08:38:04;;;;;;;;;23.00;21.00;;;;;23.33;54.55;100429.34;5000881;28;45972;-76
2021/06/27 08:40:29;;;;;;;;;19.25;18.50;;;;;23.32;54.88;100433.81;5000713;28;45356;-77
2021/06/27 08:42:54;;;;;;;;;23.00;22.00;;;;;23.33;55.07;100438.19;5010290;28;45688;-76
2021/06/27 08:45:23;;;;;;;;;23.00;20.50;;;;;23.31;55.05;100439.22;5004082;28;45423;-75
2021/06/27 08:47:51;;;;;;;;;18.25;18.25;;;;;23.33;55.03;100440.00;4984065;28;47583;-75
2021/06/27 08:50:16;;;;;;;;;22.50;21.00;;;;;23.31;54.40;100434.75;5000482;28;45280;-76
2021/06/27 08:52:43;;;;;;;;;21.75;20.25;;;;;23.29;54.85;100433.09;5008976;28;48710;-77
2021/06/27 08:55:09;;;;;;;;;22.25;20.50;;;;;23.27;54.90;100422.50;4983922;28;45493;-76
2021/06/27 08:57:34;;;;;;;;;22.25;20.00;;;;;23.23;54.60;100422.75;5000384;28;45373;-76
2021/06/27 09:00:00;;;;;;;;;24.00;21.50;;;;;23.30;54.92;100430.38;5007176;28;45485;-75
2021/06/27 09:02:25;;;;;;;;;21.25;21.25;;;;;23.27;54.70;100422.50;5020254;28;45424;-75
2021/06/27 09:05:00;;;;;;;;;22.75;21.50;;;;;23.32;54.93;100431.16;5003629;28;45527;-74
2021/06/27 09:07:32;;;;;;;;;22.50;20.75;;;;;23.25;55.32;100426.19;5000617;28;45618;-75
2021/06/27 09:10:31;;;;;;;;;23.25;22.75;;;;;23.35;55.06;100440.78;4999943;28;45630;-76
2021/06/27 09:13:02;;;;;;;;;21.50;19.00;;;;;23.33;55.56;100448.84;4978428;28;45368;-77
2021/06/27 09:15:43;;;;;;;;;22.25;19.50;;;;;23.32;55.05;100446.25;5000410;28;45314;-75
2021/06/27 09:18:20;;;;;;;;;25.75;24.75;;;;;23.31;55.26;100449.88;5001452;28;46463;-75
2021/06/27 09:20:49;;;;;;;;;17.75;17.00;;;;;23.28;55.52;100444.66;5001680;28;45254;-76
2021/06/27 09:23:15;;;;;;;;;23.50;19.75;;;;;23.20;55.76;100431.75;4983691;28;45352;-77
2021/06/27 09:25:52;;;;;;;;;21.75;20.75;;;;;23.24;55.88;100435.97;5000165;28;45662;-75
2021/06/27 09:28:57;;;;;;;;;21.25;20.50;;;;;23.20;55.88;100433.56;5000867;28;45420;-76
2021/06/27 09:31:35;;;;;;;;;23.25;21.50;;;;;23.32;55.71;100456.91;4999577;28;45365;-76
2021/06/27 09:34:09;;;;;;;;;21.00;20.25;;;;;23.24;56.61;100451.94;5000080;28;45255;-77
2021/06/27 09:36:37;;;;;;;;;26.00;21.50;;;;;23.31;56.39;100455.19;5010967;28;45479;-76
2021/06/27 09:39:10;;;;;;;;;26.25;24.25;;;;;23.32;56.52;100456.91;4990957;28;45262;-76
2021/06/27 09:41:37;;;;;;;;;23.00;21.50;;;;;23.33;56.94;100462.16;5007630;28;45407;-76
2021/06/27 09:44:04;;;;;;;;;26.00;20.25;;;;;23.35;56.52;100460.28;5013051;28;45210;-75
2021/06/27 09:46:37;;;;;;;;;25.00;23.00;;;;;23.27;56.86;100450.94;4983120;28;45531;-77
2021/06/27 09:49:16;;;;;;;;;24.00;20.50;;;;;23.36;56.60;100456.69;4983412;28;48396;-76
2021/06/27 09:52:21;;;;;;;;;20.00;20.00;;;;;23.40;56.26;100462.75;5008047;28;45470;-76
2021/06/27 09:54:47;;;;;;;;;21.25;19.75;;;;;23.40;55.92;100465.41;4999438;28;45436;-76
2021/06/27 09:57:30;;;;;;;;;24.25;20.00;;;;;23.42;56.42;100476.84;5019415;28;46947;-77
2021/06/27 09:59:56;;;;;;;;;22.25;21.25;;;;;23.47;56.32;100485.47;5033021;28;45499;-77
2021/06/27 10:02:21;;;;;;;;;19.75;19.75;;;;;23.48;56.52;100486.34;4999038;28;51288;-74
2021/06/27 10:04:47;;;;;;;;;24.75;23.00;;;;;23.49;56.24;100480.06;4999526;28;45391;-77
2021/06/27 10:07:15;;;;;;;;;23.75;20.75;;;;;23.50;56.02;100497.78;4999364;28;45648;-77
2021/06/27 10:09:41;;;;;;;;;28.00;23.25;;;;;23.41;56.50;100473.31;4999272;28;46102;-76
2021/06/27 10:12:24;;;;;;;;;23.50;21.75;;;;;23.45;57.00;100490.00;4999427;28;45323;-77
2021/06/27 10:14:51;;;;;;;;;23.75;21.75;;;;;23.48;56.38;100492.53;4999287;28;45255;-77
2021/06/27 10:17:23;;;;;;;;;29.50;23.50;;;;;23.48;56.95;100497.00;5000605;28;45416;-77
2021/06/27 10:19:49;;;;;;;;;24.00;21.50;;;;;23.49;56.90;100499.59;5015194;28;45510;-76
2021/06/27 10:22:15;;;;;;;;;20.25;20.25;;;;;23.49;57.26;100494.25;5000637;28;45279;-75
2021/06/27 10:24:40;;;;;;;;;25.25;20.75;;;;;23.48;56.71;100503.19;5003240;28;45716;-77
2021/06/27 10:27:07;;;;;;;;;24.50;24.00;;;;;23.45;56.65;100498.00;5015508;28;45470;-75
2021/06/27 10:29:35;;;;;;;;;23.00;21.50;;;;;23.48;56.44;100505.00;5002544;28;47958;-76
2021/06/27 10:32:00;;;;;;;;;26.00;20.75;;;;;23.50;56.68;100514.63;4999090;28;45489;-76
2021/06/27 10:34:26;;;;;;;;;19.75;19.00;;;;;23.49;56.81;100510.25;4998408;28;45357;-76
2021/06/27 10:36:53;;;;;;;;;22.75;19.50;;;;;23.50;56.28;100511.09;4999065;28;45263;-75
2021/06/27 10:39:19;;;;;;;;;19.50;18.75;;;;;23.52;56.50;100525.19;4998896;28;46301;-76
2021/06/27 10:45:30;;;;;;;;;22.00;19.50;;;;;23.47;56.13;100509.47;5003247;28;45340;-76
2021/06/27 10:47:56;;;;;;;;;25.50;23.50;;;;;23.50;56.25;100511.97;5018558;28;45194;-76
2021/06/27 10:51:13;;;;;;;;;20.25;18.25;;;;;23.51;56.54;100516.34;5031113;28;46206;-76
2021/06/27 10:54:11;;;;;;;;;24.25;21.75;;;;;23.53;56.38;100522.47;5010514;28;45501;-76
2021/06/27 10:56:55;;;;;;;;;23.00;19.75;;;;;23.53;57.06;100521.59;4998928;28;45417;-76
2021/06/27 10:59:48;;;;;;;;;22.50;20.25;;;;;23.50;56.89;100519.94;4983681;28;45746;-77
2021/06/27 11:02:16;;;;;;;;;22.75;21.25;;;;;23.53;56.62;100522.47;5011837;28;47025;-77
2021/06/27 11:04:42;;;;;;;;;22.50;21.75;;;;;23.51;56.54;100521.69;4999852;28;45325;-77
2021/06/27 11:07:11;;;;;;;;;23.75;21.25;;;;;23.51;57.00;100521.69;5000424;28;45384;-77
2021/06/27 11:12:58;;;;;;;;;25.25;22.00;;;;;23.49;56.98;100512.91;4951952;28;45442;-78
2021/06/27 11:15:38;;;;;;;;;25.50;22.50;;;;;23.49;56.82;100522.69;5019495;28;45222;-77
2021/06/27 11:18:07;;;;;;;;;25.00;22.50;;;;;23.49;56.86;100515.56;5018578;28;45557;-77
2021/06/27 11:20:51;;;;;;;;;26.25;24.25;;;;;23.50;57.43;100519.94;5018474;28;45498;-77